Time;durP1;ratioP1;P1;durP2;ratioP2;P2;SDS_P1;SDS_P2;PMS_P1;PMS_P2;Temp;Humidity;BMP_temperature;BMP_pressure;BME280_temperature;BME280_humidity;BME280_pressure;Samples;Min_cycle;Max_cycle;Signal;HPM_P1;HPM_P2
2024/03/02 00:02:25;;;;;;;13.80;7.78;;;7.80;99.90;;;;;;5053894;28;20021;-68
2024/03/02 00:04:51;;;;;;;8.40;5.07;;;7.70;99.90;;;;;;5053811;28;20021;-68
2024/03/02 00:07:17;;;;;;;5.10;3.50;;;7.60;99.90;;;;;;5053301;28;20037;-68
2024/03/02 00:09:42;;;;;;;5.78;4.50;;;7.70;99.90;;;;;;5053729;28;20036;-68
2024/03/02 00:12:10;;;;;;;7.10;4.05;;;7.60;1.00;;;;;;5053789;28;20036;-68
2024/03/02 00:14:35;;;;;;;9.52;5.55;;;7.50;1.00;;;;;;5053734;28;20025;-68
2024/03/02 00:17:01;;;;;;;14.85;7.28;;;7.50;1.00;;;;;;5053269;28;20027;-68
2024/03/02 00:19:26;;;;;;;16.80;9.00;;;7.50;1.00;;;;;;5053157;28;20037;-68
2024/03/02 00:21:52;;;;;;;16.02;9.13;;;7.50;1.00;;;;;;5053306;28;20053;-68
2024/03/02 00:24:21;;;;;;;12.57;8.15;;;7.40;1.00;;;;;;5053488;28;20021;-68
2024/03/02 00:26:47;;;;;;;7.20;5.18;;;7.40;1.00;;;;;;5053075;28;20079;-68
2024/03/02 00:29:18;;;;;;;6.85;4.68;;;7.30;58.90;;;;;;5053027;28;20447;-68
2024/03/02 00:31:43;;;;;;;7.05;5.40;;;7.30;79.00;;;;;;5053565;28;20062;-68
2024/03/02 00:34:11;;;;;;;10.35;4.68;;;7.30;99.90;;;;;;5052983;28;20517;-68
2024/03/02 00:36:36;;;;;;;7.55;4.70;;;7.20;99.90;;;;;;5053114;28;20032;-69
2024/03/02 00:39:02;;;;;;;6.15;4.68;;;7.10;99.90;;;;;;5053221;28;20537;-68
2024/03/02 00:41:30;;;;;;;6.30;4.65;;;7.20;99.90;;;;;;5053289;28;20037;-68
2024/03/02 00:44:13;;;;;;;6.70;3.97;;;7.20;99.90;;;;;;5053259;28;20364;-68
2024/03/02 00:46:40;;;;;;;5.82;4.20;;;7.40;99.90;;;;;;5052950;28;20025;-68
2024/03/02 00:49:28;;;;;;;9.38;4.35;;;7.40;97.80;;;;;;5053272;28;20207;-68
2024/03/02 00:51:54;;;;;;;5.70;4.53;;;7.40;89.20;;;;;;5053242;28;20029;-68
2024/03/02 00:54:23;;;;;;;8.65;4.80;;;7.50;1.00;;;;;;5053145;28;20487;-68
2024/03/02 00:56:49;;;;;;;8.02;4.53;;;7.50;1.00;;;;;;5053206;28;20036;-68
2024/03/02 00:59:15;;;;;;;6.60;4.50;;;7.50;1.00;;;;;;5052655;28;20068;-68
2024/03/02 01:01:42;;;;;;;7.93;4.57;;;7.40;1.00;;;;;;5053149;28;20471;-68
2024/03/02 01:04:07;;;;;;;5.88;4.53;;;7.40;95.10;;;;;;5053071;28;20017;-68
2024/03/02 01:06:33;;;;;;;6.78;5.13;;;7.40;99.90;;;;;;5053136;28;20506;-68
2024/03/02 01:08:59;;;;;;;6.93;4.53;;;7.30;99.90;;;;;;5052599;28;20028;-67
2024/03/02 01:11:24;;;;;;;7.63;5.20;;;7.30;99.90;;;;;;5053029;28;20029;-68
2024/03/02 01:13:51;;;;;;;9.52;5.05;;;7.30;99.90;;;;;;5052975;28;20479;-68
2024/03/02 01:16:17;;;;;;;7.65;4.70;;;7.30;60.80;;;;;;5052513;28;20025;-68
2024/03/02 01:18:43;;;;;;;7.47;5.00;;;7.30;99.90;;;;;;5052680;28;20079;-68
2024/03/02 01:21:08;;;;;;;8.68;5.32;;;7.20;99.90;;;;;;5056169;28;20100;-68
2024/03/02 01:23:34;;;;;;;6.80;4.43;;;7.20;99.90;;;;;;5056558;28;20048;-68
2024/03/02 01:25:59;;;;;;;11.18;6.15;;;7.20;99.90;;;;;;5056803;28;20025;-68
2024/03/02 01:28:25;;;;;;;8.23;5.20;;;7.20;99.90;;;;;;5056768;28;20412;-68
2024/03/02 01:30:50;;;;;;;7.18;4.72;;;7.20;99.90;;;;;;5056377;28;20025;-68
2024/03/02 01:33:18;;;;;;;6.85;4.88;;;7.20;51.20;;;;;;5056791;28;20040;-68
2024/03/02 01:35:43;;;;;;;6.30;4.72;;;7.20;99.90;;;;;;5056747;28;20036;-68
2024/03/02 01:38:09;;;;;;;6.88;4.90;;;7.30;1.00;;;;;;5056225;28;20475;-68
2024/03/02 01:40:35;;;;;;;6.68;4.22;;;7.30;1.00;;;;;;5056202;28;20402;-68
2024/03/02 01:43:02;;;;;;;7.95;4.72;;;7.20;38.00;;;;;;5056729;28;20025;-68
2024/03/02 01:45:28;;;;;;;6.28;4.43;;;7.20;1.00;;;;;;5056452;28;20367;-68
2024/03/02 01:47:54;;;;;;;6.38;4.30;;;7.20;1.00;;;;;;5056448;28;20031;-68
2024/03/02 01:50:28;;;;;;;7.25;4.43;;;7.20;1.00;;;;;;5055964;28;20438;-67
2024/03/02 01:52:55;;;;;;;8.68;4.90;;;7.20;1.00;;;;;;5056026;28;20025;-68
2024/03/02 01:55:20;;;;;;;9.00;4.72;;;7.20;1.00;;;;;;5056374;28;20032;-67
2024/03/02 01:57:47;;;;;;;6.75;4.80;;;7.10;1.00;;;;;;5056116;28;20479;-68
2024/03/02 02:00:13;;;;;;;6.60;4.28;;;7.10;49.00;;;;;;5055820;28;20135;-68
2024/03/02 02:02:39;;;;;;;5.72;4.40;;;7.20;1.00;;;;;;5055795;28;20067;-68
2024/03/02 02:05:05;;;;;;;7.13;4.55;;;7.20;9.90;;;;;;5055770;28;20067;-68
2024/03/02 02:07:31;;;;;;;7.00;4.03;;;7.20;1.00;;;;;;5056056;28;20032;-68
2024/03/02 02:09:57;;;;;;;6.35;4.50;;;7.20;1.00;;;;;;5055622;28;20050;-67
2024/03/02 02:12:22;;;;;;;6.20;4.13;;;7.10;1.00;;;;;;5055993;28;20033;-68
2024/03/02 02:14:50;;;;;;;6.75;4.47;;;7.10;1.00;;;;;;5055644;28;20024;-68
2024/03/02 02:17:16;;;;;;;8.70;4.50;;;7.00;1.00;;;;;;5055993;28;20024;-68
2024/03/02 02:19:42;;;;;;;7.13;4.43;;;7.10;5.10;;;;;;5055653;28;20049;-68
2024/03/02 02:22:08;;;;;;;8.00;4.95;;;7.10;1.00;;;;;;5055511;28;20475;-68
2024/03/02 02:24:34;;;;;;;5.72;4.03;;;7.10;1.00;;;;;;5055786;28;20032;-67
2024/03/02 02:26:59;;;;;;;6.68;4.40;;;7.10;1.00;;;;;;5055324;28;20025;-68
2024/03/02 02:29:25;;;;;;;8.75;4.85;;;7.20;1.00;;;;;;5055654;28;20037;-68
2024/03/02 02:31:50;;;;;;;6.18;4.38;;;7.10;1.00;;;;;;5055230;28;20029;-68
2024/03/02 02:34:16;;;;;;;7.32;4.40;;;7.10;1.00;;;;;;5055418;28;20029;-68
2024/03/02 02:36:42;;;;;;;7.50;4.15;;;7.00;1.00;;;;;;5055782;28;20032;-68
2024/03/02 02:39:13;;;;;;;6.82;4.28;;;7.10;1.00;;;;;;5055360;28;20398;-67
2024/03/02 02:41:38;;;;;;;6.05;4.40;;;7.00;1.00;;;;;;5055582;28;20474;-68
2024/03/02 02:44:04;;;;;;;9.93;5.15;;;7.00;17.90;;;;;;5055442;28;20036;-68
2024/03/02 02:46:30;;;;;;;7.90;4.25;;;7.00;42.30;;;;;;5055281;28;20033;-68
2024/03/02 02:48:56;;;;;;;7.22;4.53;;;6.90;99.90;;;;;;5055284;28;20069;-68
2024/03/02 02:51:21;;;;;;;9.18;4.30;;;6.90;99.90;;;;;;5054980;28;20163;-68
2024/03/02 02:53:47;;;;;;;5.65;4.40;;;6.80;99.90;;;;;;5055225;28;20036;-68
2024/03/02 02:56:12;;;;;;;7.75;4.50;;;6.90;99.90;;;;;;5055214;28;20040;-68
2024/03/02 02:58:39;;;;;;;5.75;4.22;;;6.90;99.90;;;;;;5054835;28;20056;-68
2024/03/02 03:01:05;;;;;;;6.40;4.18;;;6.90;99.90;;;;;;5055301;28;20098;-68
2024/03/02 03:03:30;;;;;;;9.77;4.55;;;6.90;99.90;;;;;;5054623;28;20052;-68
2024/03/02 03:05:56;;;;;;;7.40;4.70;;;6.80;99.90;;;;;;5055002;28;20027;-68
2024/03/02 03:08:23;;;;;;;8.45;4.78;;;6.80;99.90;;;;;;5055016;28;20112;-68
2024/03/02 03:10:49;;;;;;;9.88;4.72;;;6.70;99.90;;;;;;5054901;28;20025;-68
2024/03/02 03:13:15;;;;;;;6.72;4.97;;;6.70;1.00;;;;;;5054581;28;20112;-68
2024/03/02 03:15:40;;;;;;;8.43;4.70;;;6.70;1.00;;;;;;5054871;28;20068;-68
2024/03/02 03:18:07;;;;;;;9.10;5.07;;;6.70;1.00;;;;;;5054478;28;20153;-68
2024/03/02 03:20:33;;;;;;;7.25;4.55;;;6.70;1.00;;;;;;5054885;28;20083;-68
2024/03/02 03:22:59;;;;;;;9.07;4.75;;;6.60;49.60;;;;;;5054694;28;20059;-68
2024/03/02 03:25:25;;;;;;;8.57;4.75;;;6.50;99.90;;;;;;5054238;28;20111;-68
2024/03/02 03:27:52;;;;;;;7.80;4.88;;;6.50;1.00;;;;;;5054592;28;20487;-68
2024/03/02 03:30:18;;;;;;;7.13;4.38;;;6.50;1.00;;;;;;5054407;28;20475;-68
2024/03/02 03:32:44;;;;;;;8.95;5.20;;;6.50;1.00;;;;;;5054520;28;20070;-68
2024/03/02 03:35:09;;;;;;;6.82;4.03;;;6.50;1.00;;;;;;5054138;28;20079;-68
2024/03/02 03:37:36;;;;;;;11.23;5.78;;;6.50;1.00;;;;;;5054488;28;20033;-68
2024/03/02 03:40:02;;;;;;;12.32;5.55;;;6.40;31.60;;;;;;5054002;28;20025;-68
2024/03/02 03:42:28;;;;;;;8.85;4.95;;;6.40;99.90;;;;;;5053457;28;20387;-68
2024/03/02 03:44:54;;;;;;;8.15;4.80;;;6.30;99.90;;;;;;5054230;28;20021;-68
2024/03/02 03:47:20;;;;;;;7.57;5.00;;;6.20;99.90;;;;;;5054195;28;20071;-68
2024/03/02 03:49:45;;;;;;;6.70;4.50;;;6.20;99.90;;;;;;5053816;28;20033;-68
2024/03/02 03:52:11;;;;;;;6.43;4.22;;;6.10;1.00;;;;;;5054104;28;20029;-68
2024/03/02 03:54:38;;;;;;;6.55;4.80;;;6.10;99.90;;;;;;5054193;28;20090;-68
2024/03/02 03:57:04;;;;;;;6.57;4.65;;;6.00;99.90;;;;;;5054222;28;20020;-68
2024/03/02 03:59:30;;;;;;;8.48;4.63;;;6.10;99.90;;;;;;5053468;28;20045;-68
2024/03/02 04:01:55;;;;;;;6.78;4.30;;;6.10;99.90;;;;;;5053589;28;20071;-68
2024/03/02 04:04:21;;;;;;;7.35;4.35;;;5.90;99.90;;;;;;5053796;28;20090;-68
2024/03/02 04:06:46;;;;;;;6.00;4.25;;;5.90;29.90;;;;;;5053824;28;20119;-68
2024/03/02 04:09:12;;;;;;;6.53;4.65;;;5.80;99.90;;;;;;5053386;28;20028;-68
2024/03/02 04:11:37;;;;;;;9.88;5.00;;;5.80;1.00;;;;;;5053462;28;20025;-68
2024/03/02 04:14:03;;;;;;;9.20;5.28;;;5.90;99.90;;;;;;5053455;28;20403;-68
2024/03/02 04:16:29;;;;;;;13.65;5.45;;;5.90;99.90;;;;;;5053624;28;20025;-68
2024/03/02 04:18:54;;;;;;;8.38;4.70;;;6.00;99.90;;;;;;5053436;28;20479;-68
2024/03/02 04:21:20;;;;;;;8.90;4.78;;;6.00;1.00;;;;;;5053624;28;20037;-68
2024/03/02 04:23:46;;;;;;;7.97;5.35;;;6.00;99.90;;;;;;5053631;28;20051;-68
2024/03/02 04:26:11;;;;;;;7.20;4.55;;;6.00;99.90;;;;;;5053614;28;20055;-67
2024/03/02 04:28:37;;;;;;;8.75;5.03;;;6.00;3.90;;;;;;5053730;28;20033;-68
2024/03/02 04:31:02;;;;;;;8.30;4.95;;;6.00;1.00;;;;;;5053556;28;20033;-68
2024/03/02 04:33:28;;;;;;;7.57;5.20;;;6.10;99.90;;;;;;5053611;28;20024;-68
2024/03/02 04:35:53;;;;;;;7.15;5.00;;;6.00;99.90;;;;;;5053483;28;20036;-68
2024/03/02 04:38:19;;;;;;;6.38;4.47;;;6.10;1.00;;;;;;5053201;28;20398;-68
2024/03/02 04:40:44;;;;;;;9.93;4.78;;;6.10;1.00;;;;;;5053451;28;20086;-68
2024/03/02 04:43:10;;;;;;;8.68;5.15;;;6.00;99.90;;;;;;5053441;28;20025;-68
2024/03/02 04:45:38;;;;;;;9.43;4.85;;;6.10;1.00;;;;;;5052921;28;20021;-67
2024/03/02 04:48:04;;;;;;;6.32;4.85;;;6.10;99.90;;;;;;5052925;28;20021;-68
2024/03/02 04:50:29;;;;;;;10.05;5.38;;;6.10;6.10;;;;;;5053131;28;20033;-67
2024/03/02 04:52:55;;;;;;;8.48;5.07;;;6.10;1.00;;;;;;5052770;28;20490;-67
2024/03/02 04:58:06;;;;;;;8.00;4.90;;;6.20;99.90;;;;;;5111156;27;20368;-67
2024/03/02 05:00:32;;;;;;;7.55;5.40;;;6.20;1.00;;;;;;5111030;28;20031;-66
2024/03/02 05:02:58;;;;;;;12.43;7.18;;;6.20;1.00;;;;;;5110607;28;20396;-66
2024/03/02 05:05:23;;;;;;;11.95;7.68;;;6.20;99.90;;;;;;5110673;28;20110;-66
2024/03/02 05:07:49;;;;;;;13.23;6.65;;;6.20;1.00;;;;;;5110995;28;20038;-66
2024/03/02 05:10:14;;;;;;;11.23;6.40;;;6.10;1.00;;;;;;5110558;28;20031;-67
2024/03/02 05:15:21;;;;;;;16.55;9.55;;;6.10;99.90;;;;;;5111010;27;20384;-66
2024/03/02 05:17:47;;;;;;;16.58;10.15;;;6.10;99.90;;;;;;5111085;28;20028;-66
2024/03/02 05:20:12;;;;;;;11.98;7.80;;;6.00;99.90;;;;;;5111056;28;20500;-67
2024/03/02 05:22:39;;;;;;;8.25;5.97;;;6.00;99.90;;;;;;5111122;28;20034;-68
2024/03/02 05:25:05;;;;;;;10.52;7.20;;;6.20;1.00;;;;;;5110700;28;20486;-67
2024/03/02 05:27:32;;;;;;;10.02;6.97;;;6.20;98.90;;;;;;5110918;28;20434;-67
2024/03/02 05:29:58;;;;;;;8.98;6.03;;;6.20;99.90;;;;;;5110948;28;20486;-69
2024/03/02 05:32:24;;;;;;;10.82;6.78;;;6.20;99.90;;;;;;5110786;28;20035;-67
2024/03/02 05:34:50;;;;;;;11.48;6.15;;;6.30;15.20;;;;;;5110566;28;20031;-66
2024/03/02 05:37:16;;;;;;;12.63;7.07;;;6.30;99.90;;;;;;5110843;28;20012;-66
2024/03/02 05:39:43;;;;;;;12.68;7.88;;;6.30;99.90;;;;;;5110764;28;20032;-67
2024/03/02 05:42:08;;;;;;;9.98;6.32;;;6.30;99.90;;;;;;5110791;28;20563;-67
2024/03/02 05:44:35;;;;;;;11.55;7.57;;;6.30;99.90;;;;;;5110762;28;20028;-67
2024/03/02 05:47:00;;;;;;;11.45;7.05;;;6.30;1.00;;;;;;5110602;28;20032;-67
2024/03/02 05:49:26;;;;;;;14.38;7.80;;;6.30;1.00;;;;;;5110551;28;20148;-67
2024/03/02 05:51:51;;;;;;;12.77;7.20;;;6.30;99.90;;;;;;5110340;28;20032;-67
2024/03/02 05:54:17;;;;;;;12.48;6.70;;;6.30;1.00;;;;;;5110164;28;20028;-67
2024/03/02 05:56:42;;;;;;;9.43;6.45;;;6.30;1.00;;;;;;5110459;28;20465;-67
2024/03/02 05:59:16;;;;;;;11.55;7.10;;;6.30;99.90;;;;;;5109978;28;20020;-67
2024/03/02 06:01:43;;;;;;;10.30;7.50;;;6.40;99.90;;;;;;5110405;28;20504;-67
2024/03/02 06:04:10;;;;;;;10.60;6.55;;;6.40;1.00;;;;;;5110088;28;20028;-67
2024/03/02 06:06:36;;;;;;;12.75;7.30;;;6.40;99.90;;;;;;5109829;28;20123;-67
2024/03/02 06:09:11;;;;;;;10.65;6.65;;;6.40;99.90;;;;;;5110078;28;20059;-67
2024/03/02 06:11:38;;;;;;;11.27;6.20;;;6.40;99.90;;;;;;5110001;28;20504;-67
2024/03/02 06:14:06;;;;;;;14.15;6.47;;;6.40;99.90;;;;;;5109189;28;20047;-67
2024/03/02 06:16:32;;;;;;;11.57;7.43;;;6.40;99.90;;;;;;5109852;28;20024;-67
2024/03/02 06:18:57;;;;;;;10.15;7.00;;;6.40;33.00;;;;;;5109856;28;20058;-67
2024/03/02 06:21:24;;;;;;;11.93;6.85;;;6.40;1.00;;;;;;5109429;28;20020;-67
2024/03/02 06:23:49;;;;;;;9.93;6.70;;;6.50;99.90;;;;;;5109740;28;20390;-67
2024/03/02 06:26:15;;;;;;;10.23;7.07;;;6.50;1.00;;;;;;5098746;28;20036;-67
2024/03/02 06:28:41;;;;;;;11.13;7.75;;;6.50;1.00;;;;;;5096146;28;20028;-67
2024/03/02 06:31:06;;;;;;;12.18;7.50;;;6.50;1.00;;;;;;5096135;28;20043;-67
2024/03/02 06:33:32;;;;;;;13.10;7.13;;;6.50;1.00;;;;;;5095506;28;20063;-67
2024/03/02 06:35:58;;;;;;;11.63;6.78;;;6.60;99.90;;;;;;5096007;28;20066;-67
2024/03/02 06:38:23;;;;;;;12.05;6.72;;;6.70;1.00;;;;;;5095558;28;20114;-67
2024/03/02 06:40:49;;;;;;;11.98;7.20;;;6.70;99.90;;;;;;5095970;28;20078;-67
2024/03/02 06:43:15;;;;;;;13.35;7.07;;;6.70;99.90;;;;;;5095863;28;20073;-68
2024/03/02 06:45:40;;;;;;;10.13;6.32;;;6.80;99.90;;;;;;5095447;28;20026;-67
2024/03/02 06:48:06;;;;;;;10.57;6.88;;;6.80;99.90;;;;;;5095781;28;20035;-67
2024/03/02 06:50:32;;;;;;;14.40;7.03;;;6.90;1.00;;;;;;5095650;28;20028;-67
2024/03/02 06:52:57;;;;;;;10.68;7.13;;;6.90;99.90;;;;;;5095213;28;20054;-69
2024/03/02 06:55:24;;;;;;;12.75;6.88;;;7.00;99.90;;;;;;5095711;28;20024;-68
2024/03/02 06:57:50;;;;;;;11.93;6.13;;;7.10;99.90;;;;;;5095903;28;20027;-68
2024/03/02 07:00:17;;;;;;;11.45;6.85;;;7.20;1.00;;;;;;5095521;28;20036;-68
2024/03/02 07:02:44;;;;;;;12.57;6.32;;;7.30;1.00;;;;;;5095075;28;20020;-68
2024/03/02 07:05:10;;;;;;;11.18;6.28;;;7.40;99.90;;;;;;5095516;28;20032;-68
2024/03/02 07:07:36;;;;;;;9.68;6.13;;;7.50;99.90;;;;;;5095391;28;20370;-68
2024/03/02 07:10:03;;;;;;;9.70;6.18;;;8.10;99.90;;;;;;5095380;28;20027;-68
2024/03/02 07:12:28;;;;;;;10.55;6.43;;;9.20;1.00;;;;;;5095411;28;20077;-69
2024/03/02 07:15:10;;;;;;;9.30;5.97;;;10.70;99.90;;;;;;5094711;28;20043;-68
2024/03/02 07:17:37;;;;;;;8.52;5.13;;;12.50;1.00;;;;;;5095323;28;20069;-69
2024/03/02 07:20:03;;;;;;;8.73;5.75;;;13.40;99.90;;;;;;5094807;28;20036;-68
2024/03/02 07:22:29;;;;;;;7.30;5.07;;;13.70;99.90;;;;;;5095134;28;20017;-69
2024/03/02 07:24:55;;;;;;;8.70;5.15;;;14.00;99.90;;;;;;5095129;28;20047;-69
2024/03/02 07:27:21;;;;;;;8.63;4.90;;;13.80;99.90;;;;;;5095058;28;20024;-68
2024/03/02 07:29:46;;;;;;;8.88;5.35;;;14.70;99.90;;;;;;5095074;28;20031;-69
2024/03/02 07:32:12;;;;;;;6.68;5.18;;;14.80;99.90;;;;;;5094948;28;20031;-69
2024/03/02 07:34:38;;;;;;;8.57;5.05;;;14.70;99.90;;;;;;5094622;28;20070;-69
2024/03/02 07:37:04;;;;;;;7.65;4.65;;;15.60;99.90;;;;;;5093431;28;20115;-69
2024/03/02 07:39:30;;;;;;;6.97;4.80;;;14.80;93.00;;;;;;5094819;28;20020;-69
2024/03/02 07:41:55;;;;;;;9.80;5.03;;;14.20;46.90;;;;;;5094247;28;20043;-69
2024/03/02 07:44:21;;;;;;;7.88;4.55;;;13.40;30.40;;;;;;5094372;28;20028;-69
2024/03/02 07:46:49;;;;;;;8.82;5.15;;;13.00;40.80;;;;;;5094773;28;20496;-68
2024/03/02 07:49:15;;;;;;;7.90;5.07;;;13.60;78.60;;;;;;5094675;28;20062;-68
2024/03/02 07:51:40;;;;;;;10.10;5.28;;;13.50;40.70;;;;;;5094286;28;20024;-69
2024/03/02 07:54:06;;;;;;;7.80;4.80;;;13.50;61.90;;;;;;5094038;28;20041;-69
2024/03/02 07:56:32;;;;;;;8.63;4.70;;;13.80;42.00;;;;;;5094471;28;20478;-69
2024/03/02 07:59:00;;;;;;;6.78;4.72;;;14.90;47.50;;;;;;5094485;28;20032;-69
2024/03/02 08:01:27;;;;;;;9.60;4.70;;;15.50;29.20;;;;;;5094263;28;20016;-69
2024/03/02 08:03:53;;;;;;;7.45;4.82;;;15.60;24.90;;;;;;5094402;28;20028;-69
2024/03/02 08:06:21;;;;;;;8.23;4.93;;;15.70;1.00;;;;;;5094325;28;20054;-69
2024/03/02 08:08:47;;;;;;;6.18;4.30;;;15.80;1.00;;;;;;5094213;28;20028;-68
2024/03/02 08:11:12;;;;;;;9.48;4.88;;;15.40;23.70;;;;;;5094207;28;20043;-67
2024/03/02 08:13:38;;;;;;;6.82;4.88;;;15.70;4.30;;;;;;5093818;28;20410;-67
2024/03/02 08:16:06;;;;;;;6.72;4.70;;;14.90;1.00;;;;;;5094166;28;20028;-66
2024/03/02 08:18:32;;;;;;;6.65;5.10;;;14.40;1.00;;;;;;5094092;28;20067;-67
2024/03/02 08:20:58;;;;;;;6.50;4.63;;;13.70;1.00;;;;;;5093580;28;20452;-67
2024/03/02 08:23:23;;;;;;;7.47;4.78;;;12.80;4.40;;;;;;5093928;28;20046;-67
2024/03/02 08:25:49;;;;;;;8.15;5.05;;;12.50;19.80;;;;;;5094115;28;20028;-67
2024/03/02 08:28:14;;;;;;;6.07;4.80;;;12.70;45.80;;;;;;5093976;28;20127;-67
2024/03/02 08:30:40;;;;;;;6.85;5.13;;;13.00;42.40;;;;;;5093612;28;20446;-67
2024/03/02 08:33:05;;;;;;;7.05;4.53;;;14.00;65.70;;;;;;5093791;28;20028;-67
2024/03/02 08:35:35;;;;;;;8.60;4.68;;;14.20;47.50;;;;;;5093498;28;20089;-68
2024/03/02 08:38:01;;;;;;;6.70;4.75;;;14.20;51.20;;;;;;5093766;28;20024;-67
2024/03/02 08:40:27;;;;;;;8.40;4.55;;;15.10;80.70;;;;;;5093366;28;20028;-68
2024/03/02 08:42:53;;;;;;;7.18;4.13;;;15.20;79.50;;;;;;5093289;28;20073;-67
2024/03/02 08:45:20;;;;;;;6.32;4.20;;;15.70;41.00;;;;;;5093688;28;20035;-68
2024/03/02 08:47:46;;;;;;;6.57;4.13;;;16.10;22.40;;;;;;5093493;28;20077;-68
2024/03/02 08:50:11;;;;;;;7.15;4.00;;;15.80;13.00;;;;;;5093422;28;20028;-68
2024/03/02 08:52:37;;;;;;;5.65;4.07;;;15.90;19.10;;;;;;5093423;28;20024;-68
2024/03/02 08:55:02;;;;;;;5.75;4.20;;;16.10;8.50;;;;;;5092888;28;20027;-68
2024/03/02 08:57:28;;;;;;;4.75;3.83;;;16.20;16.40;;;;;;5093380;28;20028;-68
2024/03/02 08:59:54;;;;;;;6.97;4.32;;;16.30;5.90;;;;;;5093104;28;20020;-68
2024/03/02 09:02:19;;;;;;;6.78;4.05;;;16.50;11.20;;;;;;5093092;28;20073;-68
2024/03/02 09:04:45;;;;;;;5.97;3.60;;;16.80;16.70;;;;;;5093438;28;20395;-68
2024/03/02 09:07:10;;;;;;;4.97;3.75;;;16.80;16.70;;;;;;5093115;28;20440;-68
2024/03/02 09:09:38;;;;;;;5.15;3.75;;;16.10;1.00;;;;;;5093256;28;20032;-68
2024/03/02 09:12:04;;;;;;;5.93;3.65;;;15.80;1.00;;;;;;5093216;28;20115;-67
2024/03/02 09:14:30;;;;;;;4.60;3.40;;;15.80;1.00;;;;;;5092546;28;20559;-68
2024/03/02 09:16:55;;;;;;;6.03;3.30;;;16.10;1.00;;;;;;5093087;28;20024;-68
2024/03/02 09:19:21;;;;;;;4.57;3.33;;;16.10;1.00;;;;;;5093238;28;20024;-68
2024/03/02 09:21:46;;;;;;;5.25;3.47;;;16.60;1.00;;;;;;5093332;28;20047;-68
2024/03/02 09:24:12;;;;;;;3.75;3.13;;;16.30;1.00;;;;;;5092983;28;20028;-68
2024/03/02 09:26:38;;;;;;;5.80;3.70;;;16.90;1.00;;;;;;5093172;28;20031;-68
2024/03/02 09:29:04;;;;;;;5.63;3.70;;;16.70;99.90;;;;;;5092696;28;20024;-68
2024/03/02 09:31:29;;;;;;;6.47;3.80;;;16.80;1.00;;;;;;5093029;28;20077;-68
2024/03/02 09:33:55;;;;;;;6.28;3.00;;;17.20;1.00;;;;;;5092609;28;20024;-68
2024/03/02 09:36:22;;;;;;;5.18;3.67;;;16.80;1.00;;;;;;5093083;28;20030;-68
2024/03/02 09:38:48;;;;;;;4.05;3.17;;;16.50;1.00;;;;;;5092658;28;20107;-68
2024/03/02 09:41:14;;;;;;;4.10;2.75;;;16.40;1.00;;;;;;5093049;28;20055;-69
2024/03/02 09:43:41;;;;;;;4.18;3.42;;;16.60;1.00;;;;;;5093101;28;20036;-68
2024/03/02 09:46:09;;;;;;;4.78;3.00;;;16.80;1.00;;;;;;5092857;28;20111;-69
2024/03/02 09:48:35;;;;;;;5.43;2.75;;;16.90;1.00;;;;;;5092854;28;20450;-68
2024/03/02 09:51:02;;;;;;;5.57;2.85;;;16.90;1.00;;;;;;5092918;28;20032;-68
2024/03/02 09:53:32;;;;;;;3.67;3.00;;;16.80;1.00;;;;;;5092386;28;20032;-68
2024/03/02 09:55:58;;;;;;;4.63;3.08;;;16.80;1.00;;;;;;5092487;28;20081;-68
2024/03/02 09:58:24;;;;;;;4.88;2.83;;;17.30;1.00;;;;;;5092852;28;20024;-68
2024/03/02 10:00:49;;;;;;;4.82;3.15;;;16.20;1.00;;;;;;5094509;28;20073;-68
2024/03/02 10:03:15;;;;;;;4.13;2.70;;;16.10;1.00;;;;;;5096749;28;20031;-68
2024/03/02 10:05:40;;;;;;;4.22;2.42;;;15.70;1.00;;;;;;5096737;28;20024;-68
2024/03/02 10:08:06;;;;;;;4.97;2.60;;;16.00;1.00;;;;;;5096552;28;20024;-68
2024/03/02 10:10:39;;;;;;;3.83;2.53;;;15.90;1.00;;;;;;5096017;28;20190;-68
2024/03/02 10:13:07;;;;;;;4.30;2.83;;;16.20;1.00;;;;;;5095706;28;20020;-69
2024/03/02 10:15:34;;;;;;;3.53;2.30;;;16.60;1.00;;;;;;5096227;28;20027;-68
2024/03/02 10:17:59;;;;;;;2.38;2.08;;;16.40;1.00;;;;;;5096255;28;20439;-68
2024/03/02 10:20:28;;;;;;;3.30;2.58;;;16.80;1.00;;;;;;5096211;28;20080;-68
2024/03/02 10:22:54;;;;;;;5.57;2.53;;;16.90;1.00;;;;;;5095819;28;20131;-68
2024/03/02 10:25:34;;;;;;;5.53;2.38;;;17.00;1.00;;;;;;5096326;28;20486;-68
2024/03/02 10:28:00;;;;;;;2.60;2.20;;;17.20;1.00;;;;;;5096210;28;20067;-68
2024/03/02 10:30:27;;;;;;;2.80;1.98;;;16.90;1.00;;;;;;5096012;28;20085;-68
2024/03/02 10:32:55;;;;;;;2.50;1.90;;;17.00;1.00;;;;;;5096138;28;20515;-68
2024/03/02 10:35:22;;;;;;;2.63;1.92;;;17.00;1.00;;;;;;5095813;28;20024;-68
2024/03/02 10:37:48;;;;;;;2.33;1.88;;;16.90;1.00;;;;;;5095985;28;20024;-68
2024/03/02 10:40:14;;;;;;;2.20;1.63;;;16.60;1.00;;;;;;5095970;28;20024;-69
2024/03/02 10:42:41;;;;;;;3.20;1.80;;;16.20;1.00;;;;;;5095883;28;20387;-68
2024/03/02 10:45:10;;;;;;;3.53;1.67;;;16.10;1.00;;;;;;5095697;28;20032;-68
2024/03/02 10:47:38;;;;;;;3.53;1.70;;;16.30;1.00;;;;;;5095423;28;20024;-68
2024/03/02 10:50:08;;;;;;;2.70;1.70;;;16.20;1.00;;;;;;5095725;28;20452;-68
2024/03/02 10:52:34;;;;;;;3.38;1.60;;;16.20;1.00;;;;;;5095649;28;20397;-69
2024/03/02 10:55:00;;;;;;;1.92;1.60;;;16.40;1.00;;;;;;5095400;28;20115;-68
2024/03/02 10:57:32;;;;;;;3.03;1.90;;;16.50;1.00;;;;;;5095570;28;20051;-69
2024/03/02 11:00:03;;;;;;;4.05;2.38;;;16.20;1.00;;;;;;5095688;28;20470;-68
2024/03/02 11:02:30;;;;;;;5.20;2.10;;;16.20;1.00;;;;;;5095622;28;20043;-68
2024/03/02 11:04:59;;;;;;;5.95;2.00;;;15.80;1.00;;;;;;5095539;28;20020;-68
2024/03/02 11:07:26;;;;;;;2.58;1.80;;;16.00;1.00;;;;;;5095547;28;20525;-68
2024/03/02 11:09:57;;;;;;;2.72;1.77;;;16.20;1.00;;;;;;5095362;28;20051;-68
2024/03/02 11:12:29;;;;;;;4.55;1.92;;;16.20;1.00;;;;;;5095233;28;20039;-68
2024/03/02 11:14:56;;;;;;;2.25;1.73;;;16.20;1.00;;;;;;5094849;28;20096;-68
2024/03/02 11:17:22;;;;;;;2.05;1.85;;;16.30;1.00;;;;;;5095252;28;20063;-68
2024/03/02 11:19:48;;;;;;;3.70;2.00;;;15.90;1.00;;;;;;5095157;28;20024;-69
2024/03/02 11:22:15;;;;;;;1.85;1.75;;;16.20;1.00;;;;;;5095286;28;20028;-69
2024/03/02 11:24:49;;;;;;;2.97;1.90;;;16.30;1.00;;;;;;5095242;28;20488;-68
2024/03/02 11:27:15;;;;;;;3.10;1.83;;;15.80;1.00;;;;;;5095145;28;20089;-67
2024/03/02 11:32:23;;;;;;;2.85;2.00;;;15.80;1.00;;;;;;5110962;27;20291;-67
2024/03/02 11:34:50;;;;;;;2.85;1.92;;;16.00;1.00;;;;;;5090722;28;20032;-68
2024/03/02 11:37:16;;;;;;;2.30;1.80;;;16.00;1.00;;;;;;5090218;28;20020;-68
2024/03/02 11:39:45;;;;;;;1.90;1.70;;;16.00;1.00;;;;;;5090140;28;20124;-67
2024/03/02 11:42:13;;;;;;;2.20;1.85;;;16.00;1.00;;;;;;5090317;28;20028;-67
2024/03/02 11:44:40;;;;;;;2.17;1.98;;;16.10;1.00;;;;;;5090482;28;20542;-68
2024/03/02 11:47:08;;;;;;;2.53;1.90;;;16.00;1.00;;;;;;5090411;28;20478;-68
2024/03/02 11:49:52;;;;;;;1.92;1.73;;;15.60;1.00;;;;;;5090476;28;20367;-67
2024/03/02 11:52:18;;;;;;;2.10;1.40;;;15.60;1.00;;;;;;5090226;28;20024;-68
2024/03/02 11:54:46;;;;;;;2.55;1.40;;;15.70;1.00;;;;;;5090452;28;20047;-68
2024/03/02 11:57:15;;;;;;;1.77;1.30;;;15.60;1.00;;;;;;5090332;28;20024;-70
2024/03/02 11:59:41;;;;;;;2.65;1.50;;;15.80;1.00;;;;;;5090067;28;20052;-67
2024/03/02 12:02:12;;;;;;;3.03;1.73;;;15.90;1.00;;;;;;5090224;28;20513;-68
2024/03/02 12:04:38;;;;;;;3.75;1.80;;;15.60;1.00;;;;;;5090146;28;20058;-68
2024/03/02 12:07:03;;;;;;;2.63;1.50;;;15.40;1.00;;;;;;5089999;28;20063;-69
2024/03/02 12:09:30;;;;;;;3.47;1.70;;;15.20;1.00;;;;;;5090181;28;20732;-68
2024/03/02 12:12:03;;;;;;;2.17;1.60;;;15.20;1.00;;;;;;5089602;28;20028;-68
2024/03/02 12:14:29;;;;;;;1.60;1.50;;;15.50;1.00;;;;;;5089855;28;20410;-68
2024/03/02 12:16:55;;;;;;;3.55;1.52;;;15.70;1.00;;;;;;5089952;28;20033;-68
2024/03/02 12:19:21;;;;;;;3.05;1.67;;;15.70;1.00;;;;;;5089567;28;20028;-68
2024/03/02 12:21:47;;;;;;;2.05;1.10;;;15.60;1.00;;;;;;5089962;28;20126;-69
2024/03/02 12:24:13;;;;;;;2.35;1.60;;;15.50;1.00;;;;;;5089871;28;20035;-69
2024/03/02 12:26:38;;;;;;;2.60;1.70;;;15.50;1.00;;;;;;5089731;28;20036;-69
2024/03/02 12:29:04;;;;;;;1.95;1.30;;;15.70;1.00;;;;;;5089775;28;20082;-69
2024/03/02 12:31:29;;;;;;;1.27;1.17;;;15.70;1.00;;;;;;5089251;28;20048;-69
2024/03/02 12:33:55;;;;;;;2.42;1.20;;;16.00;1.00;;;;;;5089741;28;20054;-69
2024/03/02 12:36:22;;;;;;;4.65;1.55;;;16.00;1.00;;;;;;5089282;28;20031;-68
2024/03/02 12:38:48;;;;;;;1.65;1.27;;;15.90;1.00;;;;;;5089635;28;20023;-69
2024/03/02 12:41:15;;;;;;;2.38;1.30;;;16.10;1.00;;;;;;5089425;28;20115;-69
2024/03/02 12:43:41;;;;;;;1.63;1.30;;;15.90;1.00;;;;;;5075832;28;20036;-68
2024/03/02 12:46:07;;;;;;;2.35;1.40;;;15.70;1.00;;;;;;5075720;28;20036;-68
2024/03/02 12:48:33;;;;;;;2.15;1.13;;;15.80;1.00;;;;;;5075774;28;20047;-68
2024/03/02 12:50:58;;;;;;;3.05;1.13;;;15.90;1.00;;;;;;5075789;28;20162;-69
2024/03/02 12:53:24;;;;;;;1.27;1.10;;;16.10;1.00;;;;;;5075789;28;20375;-68
2024/03/02 12:55:50;;;;;;;1.73;1.23;;;16.10;1.00;;;;;;5075740;28;20086;-68
2024/03/02 12:58:19;;;;;;;0.88;0.85;;;16.00;1.00;;;;;;5075676;28;20433;-69
2024/03/02 13:00:44;;;;;;;1.60;1.20;;;16.00;1.00;;;;;;5075610;28;20035;-67